sensor_id;sensor_type;location;lat;lon;timestamp;P1;durP1;ratioP1;P2;durP2;ratioP2
36689;SDS011;22676;51.120;3.702;2023-11-21T00:01:54;2.35;;;2.08;;
36689;SDS011;22676;51.120;3.702;2023-11-21T00:04:20;3.50;;;2.47;;
36689;SDS011;22676;51.120;3.702;2023-11-21T00:06:46;3.25;;;2.40;;
36689;SDS011;22676;51.120;3.702;2023-11-21T00:09:12;2.67;;;2.38;;
36689;SDS011;22676;51.120;3.702;2023-11-21T00:11:40;4.47;;;2.40;;
36689;SDS011;22676;51.120;3.702;2023-11-21T00:14:06;2.60;;;2.38;;
36689;SDS011;22676;51.120;3.702;2023-11-21T00:16:33;2.42;;;2.22;;
36689;SDS011;22676;51.120;3.702;2023-11-21T00:18:59;2.83;;;2.17;;
36689;SDS011;22676;51.120;3.702;2023-11-21T00:21:24;2.63;;;2.28;;
36689;SDS011;22676;51.120;3.702;2023-11-21T00:23:50;2.42;;;2.22;;
36689;SDS011;22676;51.120;3.702;2023-11-21T00:26:16;2.35;;;2.15;;
36689;SDS011;22676;51.120;3.702;2023-11-21T00:28:42;2.92;;;2.47;;
36689;SDS011;22676;51.120;3.702;2023-11-21T00:31:08;2.35;;;2.00;;
36689;SDS011;22676;51.120;3.702;2023-11-21T00:33:33;2.20;;;2.00;;
36689;SDS011;22676;51.120;3.702;2023-11-21T00:35:59;2.88;;;2.25;;
36689;SDS011;22676;51.120;3.702;2023-11-21T00:38:25;5.25;;;3.20;;
36689;SDS011;22676;51.120;3.702;2023-11-21T00:40:52;4.78;;;3.38;;
36689;SDS011;22676;51.120;3.702;2023-11-21T00:43:21;4.72;;;2.65;;
36689;SDS011;22676;51.120;3.702;2023-11-21T00:45:49;3.03;;;2.17;;
36689;SDS011;22676;51.120;3.702;2023-11-21T00:48:15;2.22;;;2.00;;
36689;SDS011;22676;51.120;3.702;2023-11-21T00:50:40;2.85;;;2.40;;
36689;SDS011;22676;51.120;3.702;2023-11-21T00:53:06;3.00;;;2.30;;
36689;SDS011;22676;51.120;3.702;2023-11-21T00:55:32;2.40;;;2.15;;
36689;SDS011;22676;51.120;3.702;2023-11-21T00:57:59;3.42;;;2.28;;
36689;SDS011;22676;51.120;3.702;2023-11-21T01:00:27;3.53;;;2.40;;
36689;SDS011;22676;51.120;3.702;2023-11-21T01:02:53;2.22;;;1.95;;
36689;SDS011;22676;51.120;3.702;2023-11-21T01:05:19;2.45;;;2.05;;
36689;SDS011;22676;51.120;3.702;2023-11-21T01:07:45;3.83;;;2.00;;
36689;SDS011;22676;51.120;3.702;2023-11-21T01:10:10;2.65;;;1.90;;
36689;SDS011;22676;51.120;3.702;2023-11-21T01:12:37;2.33;;;2.13;;
36689;SDS011;22676;51.120;3.702;2023-11-21T01:15:04;2.03;;;1.90;;
36689;SDS011;22676;51.120;3.702;2023-11-21T01:17:32;2.65;;;1.90;;
36689;SDS011;22676;51.120;3.702;2023-11-21T01:19:59;2.55;;;2.20;;
36689;SDS011;22676;51.120;3.702;2023-11-21T01:22:25;2.00;;;1.80;;
36689;SDS011;22676;51.120;3.702;2023-11-21T01:24:52;2.15;;;1.95;;
36689;SDS011;22676;51.120;3.702;2023-11-21T01:27:18;2.72;;;2.00;;
36689;SDS011;22676;51.120;3.702;2023-11-21T01:29:44;3.42;;;2.22;;
36689;SDS011;22676;51.120;3.702;2023-11-21T01:32:10;3.50;;;1.92;;
36689;SDS011;22676;51.120;3.702;2023-11-21T01:34:36;4.70;;;2.13;;
36689;SDS011;22676;51.120;3.702;2023-11-21T01:37:02;3.28;;;2.38;;
36689;SDS011;22676;51.120;3.702;2023-11-21T01:39:29;6.20;;;3.17;;
36689;SDS011;22676;51.120;3.702;2023-11-21T01:41:55;2.50;;;2.30;;
36689;SDS011;22676;51.120;3.702;2023-11-21T01:44:23;2.40;;;2.05;;
36689;SDS011;22676;51.120;3.702;2023-11-21T01:46:49;3.45;;;2.40;;
36689;SDS011;22676;51.120;3.702;2023-11-21T01:49:16;2.75;;;1.98;;
36689;SDS011;22676;51.120;3.702;2023-11-21T01:51:43;2.45;;;2.00;;
36689;SDS011;22676;51.120;3.702;2023-11-21T01:54:14;2.67;;;2.13;;
36689;SDS011;22676;51.120;3.702;2023-11-21T01:56:42;3.15;;;1.80;;
36689;SDS011;22676;51.120;3.702;2023-11-21T01:59:09;3.92;;;2.45;;
36689;SDS011;22676;51.120;3.702;2023-11-21T02:01:37;2.30;;;1.90;;
36689;SDS011;22676;51.120;3.702;2023-11-21T02:04:02;6.00;;;2.00;;
36689;SDS011;22676;51.120;3.702;2023-11-21T02:06:28;2.15;;;1.90;;
36689;SDS011;22676;51.120;3.702;2023-11-21T02:08:56;3.13;;;1.85;;
36689;SDS011;22676;51.120;3.702;2023-11-21T02:11:22;3.08;;;1.90;;
36689;SDS011;22676;51.120;3.702;2023-11-21T02:13:47;2.22;;;1.85;;
36689;SDS011;22676;51.120;3.702;2023-11-21T02:16:15;1.77;;;1.52;;
36689;SDS011;22676;51.120;3.702;2023-11-21T02:18:40;1.90;;;1.73;;
36689;SDS011;22676;51.120;3.702;2023-11-21T02:21:06;2.13;;;1.80;;
36689;SDS011;22676;51.120;3.702;2023-11-21T02:23:33;3.17;;;1.50;;
36689;SDS011;22676;51.120;3.702;2023-11-21T02:25:58;2.42;;;1.83;;
36689;SDS011;22676;51.120;3.702;2023-11-21T02:28:24;1.75;;;1.65;;
36689;SDS011;22676;51.120;3.702;2023-11-21T02:30:52;2.50;;;1.80;;
36689;SDS011;22676;51.120;3.702;2023-11-21T02:33:21;2.63;;;1.80;;
36689;SDS011;22676;51.120;3.702;2023-11-21T02:35:47;1.63;;;1.52;;
36689;SDS011;22676;51.120;3.702;2023-11-21T02:38:13;3.17;;;2.28;;
36689;SDS011;22676;51.120;3.702;2023-11-21T02:40:39;3.58;;;2.40;;
36689;SDS011;22676;51.120;3.702;2023-11-21T02:43:04;2.20;;;2.00;;
36689;SDS011;22676;51.120;3.702;2023-11-21T02:45:30;3.58;;;1.73;;
36689;SDS011;22676;51.120;3.702;2023-11-21T02:47:56;3.30;;;1.80;;
36689;SDS011;22676;51.120;3.702;2023-11-21T02:50:22;1.80;;;1.60;;
36689;SDS011;22676;51.120;3.702;2023-11-21T02:52:48;2.05;;;1.65;;
36689;SDS011;22676;51.120;3.702;2023-11-21T02:55:14;2.40;;;1.52;;
36689;SDS011;22676;51.120;3.702;2023-11-21T02:57:40;1.52;;;1.42;;
36689;SDS011;22676;51.120;3.702;2023-11-21T03:00:06;2.30;;;1.80;;
36689;SDS011;22676;51.120;3.702;2023-11-21T03:02:33;1.75;;;1.58;;
36689;SDS011;22676;51.120;3.702;2023-11-21T03:05:01;1.75;;;1.50;;
36689;SDS011;22676;51.120;3.702;2023-11-21T03:07:27;2.80;;;1.42;;
36689;SDS011;22676;51.120;3.702;2023-11-21T03:09:53;4.00;;;1.77;;
36689;SDS011;22676;51.120;3.702;2023-11-21T03:12:19;1.67;;;1.58;;
36689;SDS011;22676;51.120;3.702;2023-11-21T03:14:44;3.90;;;1.40;;
36689;SDS011;22676;51.120;3.702;2023-11-21T03:17:10;2.28;;;1.70;;
36689;SDS011;22676;51.120;3.702;2023-11-21T03:19:36;1.73;;;1.58;;
36689;SDS011;22676;51.120;3.702;2023-11-21T03:22:02;1.92;;;1.60;;
36689;SDS011;22676;51.120;3.702;2023-11-21T03:24:29;4.15;;;1.70;;
36689;SDS011;22676;51.120;3.702;2023-11-21T03:26:55;1.55;;;1.40;;
36689;SDS011;22676;51.120;3.702;2023-11-21T03:29:21;2.28;;;1.75;;
36689;SDS011;22676;51.120;3.702;2023-11-21T03:31:46;1.45;;;1.35;;
36689;SDS011;22676;51.120;3.702;2023-11-21T03:34:16;1.58;;;1.48;;
36689;SDS011;22676;51.120;3.702;2023-11-21T03:36:52;2.67;;;1.50;;
36689;SDS011;22676;51.120;3.702;2023-11-21T03:39:19;3.40;;;2.40;;
36689;SDS011;22676;51.120;3.702;2023-11-21T03:41:45;3.55;;;2.05;;
36689;SDS011;22676;51.120;3.702;2023-11-21T03:44:11;2.33;;;1.60;;
36689;SDS011;22676;51.120;3.702;2023-11-21T03:46:37;1.58;;;1.30;;
36689;SDS011;22676;51.120;3.702;2023-11-21T03:49:02;1.85;;;1.40;;
36689;SDS011;22676;51.120;3.702;2023-11-21T03:51:28;2.67;;;1.42;;
36689;SDS011;22676;51.120;3.702;2023-11-21T03:53:54;2.38;;;1.52;;
36689;SDS011;22676;51.120;3.702;2023-11-21T03:56:19;1.50;;;1.40;;
36689;SDS011;22676;51.120;3.702;2023-11-21T03:58:47;1.50;;;1.40;;
36689;SDS011;22676;51.120;3.702;2023-11-21T04:01:23;2.28;;;1.80;;
36689;SDS011;22676;51.120;3.702;2023-11-21T04:03:49;1.90;;;1.55;;
36689;SDS011;22676;51.120;3.702;2023-11-21T04:06:16;2.83;;;1.40;;
36689;SDS011;22676;51.120;3.702;2023-11-21T04:08:45;1.98;;;1.60;;
36689;SDS011;22676;51.120;3.702;2023-11-21T04:11:11;1.52;;;1.40;;
36689;SDS011;22676;51.120;3.702;2023-11-21T04:13:38;1.58;;;1.33;;
36689;SDS011;22676;51.120;3.702;2023-11-21T04:16:05;1.88;;;1.45;;
36689;SDS011;22676;51.120;3.702;2023-11-21T04:18:31;2.05;;;1.63;;
36689;SDS011;22676;51.120;3.702;2023-11-21T04:20:57;1.63;;;1.48;;
36689;SDS011;22676;51.120;3.702;2023-11-21T04:23:23;3.05;;;1.45;;
36689;SDS011;22676;51.120;3.702;2023-11-21T04:25:48;1.88;;;1.40;;
36689;SDS011;22676;51.120;3.702;2023-11-21T04:28:14;2.13;;;1.40;;
36689;SDS011;22676;51.120;3.702;2023-11-21T04:30:40;1.30;;;1.20;;
36689;SDS011;22676;51.120;3.702;2023-11-21T04:33:05;1.70;;;1.48;;
36689;SDS011;22676;51.120;3.702;2023-11-21T04:35:32;1.30;;;1.20;;
36689;SDS011;22676;51.120;3.702;2023-11-21T04:37:58;3.33;;;2.33;;
36689;SDS011;22676;51.120;3.702;2023-11-21T04:40:24;3.90;;;2.67;;
36689;SDS011;22676;51.120;3.702;2023-11-21T04:42:52;3.75;;;2.00;;
36689;SDS011;22676;51.120;3.702;2023-11-21T04:45:17;2.35;;;1.70;;
36689;SDS011;22676;51.120;3.702;2023-11-21T04:47:43;1.90;;;1.60;;
36689;SDS011;22676;51.120;3.702;2023-11-21T04:50:09;1.25;;;1.15;;
36689;SDS011;22676;51.120;3.702;2023-11-21T04:52:35;1.45;;;1.35;;
36689;SDS011;22676;51.120;3.702;2023-11-21T04:55:01;1.50;;;1.30;;
36689;SDS011;22676;51.120;3.702;2023-11-21T04:57:27;1.55;;;1.40;;
36689;SDS011;22676;51.120;3.702;2023-11-21T04:59:56;1.67;;;1.30;;
36689;SDS011;22676;51.120;3.702;2023-11-21T05:02:21;1.67;;;1.30;;
36689;SDS011;22676;51.120;3.702;2023-11-21T05:04:47;1.35;;;1.20;;
36689;SDS011;22676;51.120;3.702;2023-11-21T05:07:13;1.60;;;1.42;;
36689;SDS011;22676;51.120;3.702;2023-11-21T05:09:42;1.25;;;1.08;;
36689;SDS011;22676;51.120;3.702;2023-11-21T05:12:10;2.83;;;1.30;;
36689;SDS011;22676;51.120;3.702;2023-11-21T05:14:39;2.22;;;1.40;;
36689;SDS011;22676;51.120;3.702;2023-11-21T05:17:05;1.40;;;1.30;;
36689;SDS011;22676;51.120;3.702;2023-11-21T05:19:32;1.65;;;1.38;;
36689;SDS011;22676;51.120;3.702;2023-11-21T05:21:59;1.38;;;1.27;;
36689;SDS011;22676;51.120;3.702;2023-11-21T05:24:25;1.50;;;1.40;;
36689;SDS011;22676;51.120;3.702;2023-11-21T05:26:51;1.40;;;1.30;;
36689;SDS011;22676;51.120;3.702;2023-11-21T05:29:17;1.60;;;1.50;;
36689;SDS011;22676;51.120;3.702;2023-11-21T05:31:43;2.50;;;1.65;;
36689;SDS011;22676;51.120;3.702;2023-11-21T05:34:09;1.58;;;1.33;;
36689;SDS011;22676;51.120;3.702;2023-11-21T05:36:34;1.40;;;1.30;;
36689;SDS011;22676;51.120;3.702;2023-11-21T05:39:00;4.10;;;3.38;;
36689;SDS011;22676;51.120;3.702;2023-11-21T05:41:26;5.38;;;3.40;;
36689;SDS011;22676;51.120;3.702;2023-11-21T05:43:51;2.60;;;1.80;;
36689;SDS011;22676;51.120;3.702;2023-11-21T05:46:19;1.85;;;1.55;;
36689;SDS011;22676;51.120;3.702;2023-11-21T05:48:44;2.20;;;1.55;;
36689;SDS011;22676;51.120;3.702;2023-11-21T05:51:11;2.17;;;1.65;;
36689;SDS011;22676;51.120;3.702;2023-11-21T05:53:38;2.42;;;1.50;;
36689;SDS011;22676;51.120;3.702;2023-11-21T05:56:04;2.30;;;1.80;;
36689;SDS011;22676;51.120;3.702;2023-11-21T05:58:30;2.47;;;1.80;;
36689;SDS011;22676;51.120;3.702;2023-11-21T06:00:56;2.10;;;1.70;;
36689;SDS011;22676;51.120;3.702;2023-11-21T06:03:22;1.60;;;1.50;;
36689;SDS011;22676;51.120;3.702;2023-11-21T06:05:48;2.50;;;1.70;;
36689;SDS011;22676;51.120;3.702;2023-11-21T06:08:14;3.25;;;1.80;;
36689;SDS011;22676;51.120;3.702;2023-11-21T06:10:41;2.08;;;1.73;;
36689;SDS011;22676;51.120;3.702;2023-11-21T06:13:08;2.35;;;1.60;;
36689;SDS011;22676;51.120;3.702;2023-11-21T06:15:35;3.47;;;2.05;;
36689;SDS011;22676;51.120;3.702;2023-11-21T06:18:01;3.88;;;1.50;;
36689;SDS011;22676;51.120;3.702;2023-11-21T06:20:27;2.63;;;1.90;;
36689;SDS011;22676;51.120;3.702;2023-11-21T06:22:52;1.50;;;1.40;;
36689;SDS011;22676;51.120;3.702;2023-11-21T06:25:18;3.60;;;1.70;;
36689;SDS011;22676;51.120;3.702;2023-11-21T06:27:45;1.73;;;1.33;;
36689;SDS011;22676;51.120;3.702;2023-11-21T06:30:15;2.70;;;1.80;;
36689;SDS011;22676;51.120;3.702;2023-11-21T06:32:41;2.35;;;1.63;;
36689;SDS011;22676;51.120;3.702;2023-11-21T06:35:10;1.77;;;1.50;;
36689;SDS011;22676;51.120;3.702;2023-11-21T06:37:36;3.88;;;2.85;;
36689;SDS011;22676;51.120;3.702;2023-11-21T06:40:02;3.50;;;2.60;;
36689;SDS011;22676;51.120;3.702;2023-11-21T06:42:29;4.47;;;2.70;;
36689;SDS011;22676;51.120;3.702;2023-11-21T06:44:55;2.00;;;1.80;;
36689;SDS011;22676;51.120;3.702;2023-11-21T06:47:24;1.40;;;1.30;;
36689;SDS011;22676;51.120;3.702;2023-11-21T06:49:50;2.03;;;1.52;;
36689;SDS011;22676;51.120;3.702;2023-11-21T06:52:17;1.90;;;1.70;;
36689;SDS011;22676;51.120;3.702;2023-11-21T06:54:43;1.73;;;1.63;;
36689;SDS011;22676;51.120;3.702;2023-11-21T06:57:09;1.95;;;1.50;;
36689;SDS011;22676;51.120;3.702;2023-11-21T06:59:34;2.15;;;1.70;;
36689;SDS011;22676;51.120;3.702;2023-11-21T07:02:00;2.28;;;1.63;;
36689;SDS011;22676;51.120;3.702;2023-11-21T07:04:26;2.50;;;1.83;;
36689;SDS011;22676;51.120;3.702;2023-11-21T07:06:55;2.15;;;1.77;;
36689;SDS011;22676;51.120;3.702;2023-11-21T07:09:21;2.85;;;1.70;;
36689;SDS011;22676;51.120;3.702;2023-11-21T07:11:47;1.63;;;1.50;;
36689;SDS011;22676;51.120;3.702;2023-11-21T07:14:14;1.48;;;1.38;;
36689;SDS011;22676;51.120;3.702;2023-11-21T07:16:40;1.70;;;1.40;;
36689;SDS011;22676;51.120;3.702;2023-11-21T07:19:06;2.17;;;1.65;;
36689;SDS011;22676;51.120;3.702;2023-11-21T07:21:35;1.60;;;1.25;;
36689;SDS011;22676;51.120;3.702;2023-11-21T07:24:02;2.03;;;1.48;;
36689;SDS011;22676;51.120;3.702;2023-11-21T07:26:28;1.70;;;1.60;;
36689;SDS011;22676;51.120;3.702;2023-11-21T07:28:55;1.73;;;1.40;;
36689;SDS011;22676;51.120;3.702;2023-11-21T07:31:21;2.70;;;1.80;;
36689;SDS011;22676;51.120;3.702;2023-11-21T07:33:48;1.83;;;1.55;;
36689;SDS011;22676;51.120;3.702;2023-11-21T07:36:14;1.50;;;1.30;;
36689;SDS011;22676;51.120;3.702;2023-11-21T07:38:41;1.77;;;1.63;;
36689;SDS011;22676;51.120;3.702;2023-11-21T07:41:07;2.25;;;1.67;;
36689;SDS011;22676;51.120;3.702;2023-11-21T07:43:34;2.10;;;1.90;;
36689;SDS011;22676;51.120;3.702;2023-11-21T07:46:01;1.65;;;1.55;;
36689;SDS011;22676;51.120;3.702;2023-11-21T07:48:30;1.80;;;1.70;;
36689;SDS011;22676;51.120;3.702;2023-11-21T07:50:57;1.30;;;1.20;;
36689;SDS011;22676;51.120;3.702;2023-11-21T07:53:26;1.58;;;1.48;;
36689;SDS011;22676;51.120;3.702;2023-11-21T07:55:54;1.70;;;1.60;;
36689;SDS011;22676;51.120;3.702;2023-11-21T07:58:20;1.38;;;1.25;;
36689;SDS011;22676;51.120;3.702;2023-11-21T08:00:46;1.42;;;1.33;;
36689;SDS011;22676;51.120;3.702;2023-11-21T08:03:13;1.63;;;1.30;;
36689;SDS011;22676;51.120;3.702;2023-11-21T08:05:39;1.40;;;1.30;;
36689;SDS011;22676;51.120;3.702;2023-11-21T08:08:05;1.40;;;1.30;;
36689;SDS011;22676;51.120;3.702;2023-11-21T08:10:31;1.63;;;1.33;;
36689;SDS011;22676;51.120;3.702;2023-11-21T08:12:56;1.63;;;1.20;;
36689;SDS011;22676;51.120;3.702;2023-11-21T08:15:23;1.50;;;1.30;;
36689;SDS011;22676;51.120;3.702;2023-11-21T08:17:49;1.52;;;1.40;;
36689;SDS011;22676;51.120;3.702;2023-11-21T08:20:14;1.58;;;1.27;;
36689;SDS011;22676;51.120;3.702;2023-11-21T08:22:41;1.67;;;1.35;;
36689;SDS011;22676;51.120;3.702;2023-11-21T08:25:10;1.42;;;1.30;;
36689;SDS011;22676;51.120;3.702;2023-11-21T08:27:36;2.42;;;1.40;;
36689;SDS011;22676;51.120;3.702;2023-11-21T08:30:05;2.05;;;1.23;;
36689;SDS011;22676;51.120;3.702;2023-11-21T08:32:32;1.45;;;1.20;;
36689;SDS011;22676;51.120;3.702;2023-11-21T08:34:58;1.58;;;1.35;;
36689;SDS011;22676;51.120;3.702;2023-11-21T08:37:25;1.25;;;1.15;;
36689;SDS011;22676;51.120;3.702;2023-11-21T08:39:52;1.60;;;1.50;;
36689;SDS011;22676;51.120;3.702;2023-11-21T08:42:18;1.70;;;1.48;;
36689;SDS011;22676;51.120;3.702;2023-11-21T08:44:44;2.42;;;1.20;;
36689;SDS011;22676;51.120;3.702;2023-11-21T08:47:10;1.95;;;1.30;;
36689;SDS011;22676;51.120;3.702;2023-11-21T08:49:36;1.85;;;1.48;;
36689;SDS011;22676;51.120;3.702;2023-11-21T08:52:03;1.50;;;1.17;;
36689;SDS011;22676;51.120;3.702;2023-11-21T08:54:30;2.05;;;1.30;;
36689;SDS011;22676;51.120;3.702;2023-11-21T08:56:56;1.40;;;1.30;;
36689;SDS011;22676;51.120;3.702;2023-11-21T08:59:24;1.00;;;1.00;;
36689;SDS011;22676;51.120;3.702;2023-11-21T09:01:50;1.35;;;1.25;;
36689;SDS011;22676;51.120;3.702;2023-11-21T09:04:16;1.33;;;1.23;;
36689;SDS011;22676;51.120;3.702;2023-11-21T09:06:41;1.00;;;1.00;;
36689;SDS011;22676;51.120;3.702;2023-11-21T09:09:07;0.90;;;0.90;;
36689;SDS011;22676;51.120;3.702;2023-11-21T09:11:35;2.60;;;1.13;;
36689;SDS011;22676;51.120;3.702;2023-11-21T09:14:01;1.20;;;1.10;;
36689;SDS011;22676;51.120;3.702;2023-11-21T09:16:28;1.55;;;0.80;;
36689;SDS011;22676;51.120;3.702;2023-11-21T09:18:54;1.10;;;1.00;;
36689;SDS011;22676;51.120;3.702;2023-11-21T09:21:19;2.15;;;1.02;;
36689;SDS011;22676;51.120;3.702;2023-11-21T09:23:45;1.38;;;0.90;;
36689;SDS011;22676;51.120;3.702;2023-11-21T09:26:11;0.95;;;0.90;;
36689;SDS011;22676;51.120;3.702;2023-11-21T09:28:37;0.90;;;0.85;;
36689;SDS011;22676;51.120;3.702;2023-11-21T09:31:03;0.95;;;0.95;;
36689;SDS011;22676;51.120;3.702;2023-11-21T09:33:29;1.00;;;0.90;;
36689;SDS011;22676;51.120;3.702;2023-11-21T09:35:56;1.23;;;0.90;;
36689;SDS011;22676;51.120;3.702;2023-11-21T09:38:22;4.53;;;0.80;;
36689;SDS011;22676;51.120;3.702;2023-11-21T09:40:48;1.75;;;1.00;;
36689;SDS011;22676;51.120;3.702;2023-11-21T09:43:18;1.90;;;0.98;;
36689;SDS011;22676;51.120;3.702;2023-11-21T09:45:48;0.93;;;0.80;;
36689;SDS011;22676;51.120;3.702;2023-11-21T09:48:21;2.92;;;0.80;;
36689;SDS011;22676;51.120;3.702;2023-11-21T09:50:49;0.93;;;0.93;;
36689;SDS011;22676;51.120;3.702;2023-11-21T09:53:19;0.90;;;0.90;;
36689;SDS011;22676;51.120;3.702;2023-11-21T09:55:52;1.23;;;0.70;;
36689;SDS011;22676;51.120;3.702;2023-11-21T09:58:19;2.15;;;0.63;;
36689;SDS011;22676;51.120;3.702;2023-11-21T10:00:51;0.70;;;0.70;;
36689;SDS011;22676;51.120;3.702;2023-11-21T10:03:18;0.75;;;0.75;;
36689;SDS011;22676;51.120;3.702;2023-11-21T10:05:44;0.77;;;0.65;;
36689;SDS011;22676;51.120;3.702;2023-11-21T10:08:12;0.70;;;0.70;;
36689;SDS011;22676;51.120;3.702;2023-11-21T10:10:42;1.13;;;0.82;;
36689;SDS011;22676;51.120;3.702;2023-11-21T10:13:13;0.93;;;0.70;;
36689;SDS011;22676;51.120;3.702;2023-11-21T10:15:41;3.70;;;0.85;;
36689;SDS011;22676;51.120;3.702;2023-11-21T10:18:13;2.95;;;0.80;;
36689;SDS011;22676;51.120;3.702;2023-11-21T10:20:40;1.77;;;0.85;;
36689;SDS011;22676;51.120;3.702;2023-11-21T10:23:07;1.05;;;0.70;;
36689;SDS011;22676;51.120;3.702;2023-11-21T10:25:36;1.90;;;0.77;;
36689;SDS011;22676;51.120;3.702;2023-11-21T10:28:02;1.13;;;0.82;;
36689;SDS011;22676;51.120;3.702;2023-11-21T10:30:37;1.10;;;1.00;;
36689;SDS011;22676;51.120;3.702;2023-11-21T10:33:04;1.00;;;0.77;;
36689;SDS011;22676;51.120;3.702;2023-11-21T10:35:42;1.08;;;0.90;;
36689;SDS011;22676;51.120;3.702;2023-11-21T10:38:12;1.33;;;0.85;;
36689;SDS011;22676;51.120;3.702;2023-11-21T10:40:39;2.58;;;0.90;;
36689;SDS011;22676;51.120;3.702;2023-11-21T10:43:06;2.03;;;0.98;;
36689;SDS011;22676;51.120;3.702;2023-11-21T10:45:39;0.85;;;0.60;;
36689;SDS011;22676;51.120;3.702;2023-11-21T10:48:05;4.28;;;0.85;;
36689;SDS011;22676;51.120;3.702;2023-11-21T10:50:36;0.82;;;0.77;;
36689;SDS011;22676;51.120;3.702;2023-11-21T10:53:03;1.98;;;0.88;;
36689;SDS011;22676;51.120;3.702;2023-11-21T10:55:29;2.53;;;0.90;;
36689;SDS011;22676;51.120;3.702;2023-11-21T10:57:58;1.38;;;0.90;;
36689;SDS011;22676;51.120;3.702;2023-11-21T11:00:25;1.52;;;0.75;;
36689;SDS011;22676;51.120;3.702;2023-11-21T11:02:53;3.95;;;0.95;;
36689;SDS011;22676;51.120;3.702;2023-11-21T11:05:21;1.30;;;0.80;;
36689;SDS011;22676;51.120;3.702;2023-11-21T11:07:51;1.35;;;0.93;;
36689;SDS011;22676;51.120;3.702;2023-11-21T11:10:27;1.80;;;0.85;;
36689;SDS011;22676;51.120;3.702;2023-11-21T11:12:54;2.78;;;1.00;;
36689;SDS011;22676;51.120;3.702;2023-11-21T11:15:22;1.58;;;0.80;;
36689;SDS011;22676;51.120;3.702;2023-11-21T11:17:48;2.30;;;0.90;;
36689;SDS011;22676;51.120;3.702;2023-11-21T11:20:15;2.05;;;0.95;;
36689;SDS011;22676;51.120;3.702;2023-11-21T11:22:52;1.37;;;0.87;;
36689;SDS011;22676;51.120;3.702;2023-11-21T11:28:22;1.75;;;0.88;;
36689;SDS011;22676;51.120;3.702;2023-11-21T11:31:09;0.90;;;0.80;;
36689;SDS011;22676;51.120;3.702;2023-11-21T11:34:01;0.73;;;0.73;;
36689;SDS011;22676;51.120;3.702;2023-11-21T11:36:47;2.50;;;1.00;;
36689;SDS011;22676;51.120;3.702;2023-11-21T11:39:49;2.42;;;0.93;;
36689;SDS011;22676;51.120;3.702;2023-11-21T11:47:19;2.53;;;1.25;;
36689;SDS011;22676;51.120;3.702;2023-11-21T11:52:35;1.92;;;1.00;;
36689;SDS011;22676;51.120;3.702;2023-11-21T11:55:09;2.72;;;1.05;;
36689;SDS011;22676;51.120;3.702;2023-11-21T11:57:37;2.17;;;0.80;;
36689;SDS011;22676;51.120;3.702;2023-11-21T12:00:07;4.18;;;1.02;;
36689;SDS011;22676;51.120;3.702;2023-11-21T12:02:40;2.47;;;1.25;;
36689;SDS011;22676;51.120;3.702;2023-11-21T12:05:13;2.03;;;1.00;;
36689;SDS011;22676;51.120;3.702;2023-11-21T12:10:11;2.03;;;1.10;;
36689;SDS011;22676;51.120;3.702;2023-11-21T12:12:41;3.70;;;1.17;;
36689;SDS011;22676;51.120;3.702;2023-11-21T12:15:08;4.53;;;1.15;;
36689;SDS011;22676;51.120;3.702;2023-11-21T12:17:34;1.92;;;0.93;;
36689;SDS011;22676;51.120;3.702;2023-11-21T12:20:03;3.05;;;1.08;;
36689;SDS011;22676;51.120;3.702;2023-11-21T12:22:30;1.38;;;0.85;;
36689;SDS011;22676;51.120;3.702;2023-11-21T12:24:56;2.72;;;1.08;;
36689;SDS011;22676;51.120;3.702;2023-11-21T12:27:22;1.92;;;0.88;;
36689;SDS011;22676;51.120;3.702;2023-11-21T12:29:48;2.22;;;1.00;;
36689;SDS011;22676;51.120;3.702;2023-11-21T12:32:13;2.80;;;0.90;;
36689;SDS011;22676;51.120;3.702;2023-11-21T12:34:41;2.20;;;1.00;;
36689;SDS011;22676;51.120;3.702;2023-11-21T12:37:07;1.85;;;1.02;;
36689;SDS011;22676;51.120;3.702;2023-11-21T12:39:32;1.77;;;1.00;;
36689;SDS011;22676;51.120;3.702;2023-11-21T12:41:58;1.85;;;1.00;;
36689;SDS011;22676;51.120;3.702;2023-11-21T12:44:25;1.63;;;0.90;;
36689;SDS011;22676;51.120;3.702;2023-11-21T12:46:51;2.30;;;1.10;;
36689;SDS011;22676;51.120;3.702;2023-11-21T12:49:17;2.42;;;1.10;;
36689;SDS011;22676;51.120;3.702;2023-11-21T12:51:46;1.45;;;0.90;;
36689;SDS011;22676;51.120;3.702;2023-11-21T12:54:12;1.40;;;0.80;;
36689;SDS011;22676;51.120;3.702;2023-11-21T12:56:38;2.40;;;0.93;;
36689;SDS011;22676;51.120;3.702;2023-11-21T12:59:04;1.58;;;0.80;;
36689;SDS011;22676;51.120;3.702;2023-11-21T13:01:30;1.88;;;1.00;;
36689;SDS011;22676;51.120;3.702;2023-11-21T13:03:57;0.93;;;0.70;;
36689;SDS011;22676;51.120;3.702;2023-11-21T13:06:27;3.20;;;1.00;;
36689;SDS011;22676;51.120;3.702;2023-11-21T13:08:56;2.40;;;1.00;;
36689;SDS011;22676;51.120;3.702;2023-11-21T13:11:22;2.72;;;1.10;;
36689;SDS011;22676;51.120;3.702;2023-11-21T13:13:48;2.25;;;0.95;;
36689;SDS011;22676;51.120;3.702;2023-11-21T13:16:18;1.17;;;0.73;;
36689;SDS011;22676;51.120;3.702;2023-11-21T13:18:45;1.80;;;0.80;;
36689;SDS011;22676;51.120;3.702;2023-11-21T13:21:11;2.53;;;1.05;;
36689;SDS011;22676;51.120;3.702;2023-11-21T13:23:42;1.33;;;0.80;;
36689;SDS011;22676;51.120;3.702;2023-11-21T13:26:11;1.80;;;0.90;;
36689;SDS011;22676;51.120;3.702;2023-11-21T13:28:37;1.55;;;0.73;;
36689;SDS011;22676;51.120;3.702;2023-11-21T13:31:03;1.75;;;0.85;;
36689;SDS011;22676;51.120;3.702;2023-11-21T13:33:49;1.58;;;0.90;;
36689;SDS011;22676;51.120;3.702;2023-11-21T13:36:20;1.27;;;0.80;;
36689;SDS011;22676;51.120;3.702;2023-11-21T13:38:51;3.70;;;0.80;;
36689;SDS011;22676;51.120;3.702;2023-11-21T13:41:20;1.60;;;0.70;;
36689;SDS011;22676;51.120;3.702;2023-11-21T13:43:53;1.70;;;0.90;;
36689;SDS011;22676;51.120;3.702;2023-11-21T13:46:25;1.63;;;0.80;;
36689;SDS011;22676;51.120;3.702;2023-11-21T13:48:50;1.90;;;0.63;;
36689;SDS011;22676;51.120;3.702;2023-11-21T13:51:20;0.82;;;0.60;;
36689;SDS011;22676;51.120;3.702;2023-11-21T13:53:55;2.17;;;0.68;;
36689;SDS011;22676;51.120;3.702;2023-11-21T13:56:21;1.13;;;0.80;;
36689;SDS011;22676;51.120;3.702;2023-11-21T13:58:50;1.13;;;0.73;;
36689;SDS011;22676;51.120;3.702;2023-11-21T14:01:20;1.05;;;0.60;;
36689;SDS011;22676;51.120;3.702;2023-11-21T14:03:49;1.20;;;0.80;;
36689;SDS011;22676;51.120;3.702;2023-11-21T14:06:22;1.23;;;0.73;;
36689;SDS011;22676;51.120;3.702;2023-11-21T14:08:53;0.63;;;0.63;;
36689;SDS011;22676;51.120;3.702;2023-11-21T14:11:21;3.10;;;0.60;;
36689;SDS011;22676;51.120;3.702;2023-11-21T14:13:47;0.70;;;0.60;;
36689;SDS011;22676;51.120;3.702;2023-11-21T14:16:13;0.73;;;0.50;;
36689;SDS011;22676;51.120;3.702;2023-11-21T14:18:42;1.67;;;0.60;;
36689;SDS011;22676;51.120;3.702;2023-11-21T14:21:18;1.00;;;0.77;;
36689;SDS011;22676;51.120;3.702;2023-11-21T14:23:44;0.77;;;0.50;;
36689;SDS011;22676;51.120;3.702;2023-11-21T14:26:10;0.77;;;0.75;;
36689;SDS011;22676;51.120;3.702;2023-11-21T14:28:39;0.60;;;0.50;;
36689;SDS011;22676;51.120;3.702;2023-11-21T14:31:04;0.60;;;0.60;;
36689;SDS011;22676;51.120;3.702;2023-11-21T14:33:30;2.30;;;0.50;;
36689;SDS011;22676;51.120;3.702;2023-11-21T14:35:56;0.88;;;0.70;;
36689;SDS011;22676;51.120;3.702;2023-11-21T14:38:22;0.80;;;0.70;;
36689;SDS011;22676;51.120;3.702;2023-11-21T14:40:48;0.73;;;0.60;;
36689;SDS011;22676;51.120;3.702;2023-11-21T14:43:14;1.02;;;0.82;;
36689;SDS011;22676;51.120;3.702;2023-11-21T14:45:41;0.60;;;0.60;;
36689;SDS011;22676;51.120;3.702;2023-11-21T14:48:06;2.30;;;0.60;;
36689;SDS011;22676;51.120;3.702;2023-11-21T14:50:41;0.65;;;0.65;;
36689;SDS011;22676;51.120;3.702;2023-11-21T14:53:08;0.50;;;0.50;;
36689;SDS011;22676;51.120;3.702;2023-11-21T14:55:34;0.63;;;0.50;;
36689;SDS011;22676;51.120;3.702;2023-11-21T14:58:18;0.80;;;0.70;;
36689;SDS011;22676;51.120;3.702;2023-11-21T15:01:04;1.00;;;0.70;;
36689;SDS011;22676;51.120;3.702;2023-11-21T15:03:29;1.58;;;0.60;;